Time;durP1;ratioP1;P1;durP2;ratioP2;P2;SDS_P1;SDS_P2;PMS_P1;PMS_P2;Temp;Humidity;BMP_temperature;BMP_pressure;BME280_temperature;BME280_humidity;BME280_pressure;Samples;Min_cycle;Max_cycle;Signal;HPM_P1;HPM_P2
2023/01/09 04:01:25;;;;;;;12.75;4.78;;;5.70;99.90;;;;;;6014830;23;20031;-78
2023/01/09 04:03:51;;;;;;;12.23;5.80;;;5.70;99.90;;;;;;6043062;23;20007;-76
2023/01/09 04:06:16;;;;;;;14.27;5.80;;;5.70;99.90;;;;;;6043033;23;20066;-78
2023/01/09 04:08:42;;;;;;;16.52;5.78;;;5.70;99.90;;;;;;6043224;23;20062;-78
2023/01/09 04:11:08;;;;;;;12.00;5.95;;;5.70;99.90;;;;;;6007986;23;20031;-76
2023/01/09 04:13:34;;;;;;;23.33;7.50;;;5.70;99.90;;;;;;6014779;23;20075;-78
2023/01/09 04:16:00;;;;;;;14.38;7.32;;;5.60;99.90;;;;;;6014944;23;20389;-79
2023/01/09 04:18:25;;;;;;;20.00;8.30;;;5.60;99.90;;;;;;6014682;23;20452;-78
2023/01/09 04:20:51;;;;;;;15.32;8.07;;;5.60;99.90;;;;;;6040954;23;20019;-78
2023/01/09 04:23:16;;;;;;;17.17;8.82;;;5.60;99.90;;;;;;6016410;23;20007;-78
2023/01/09 04:25:42;;;;;;;17.13;7.88;;;5.60;99.90;;;;;;5992919;23;20139;-77
2023/01/09 04:28:08;;;;;;;16.65;9.05;;;5.60;99.90;;;;;;6016013;23;20022;-78
2023/01/09 04:30:34;;;;;;;20.60;9.88;;;5.60;99.90;;;;;;6015990;23;20558;-79
2023/01/09 04:32:59;;;;;;;17.35;9.65;;;5.60;99.90;;;;;;6041835;23;20070;-78
2023/01/09 04:35:25;;;;;;;18.98;9.75;;;5.60;99.90;;;;;;6016353;23;20034;-78
2023/01/09 04:37:50;;;;;;;17.73;9.77;;;5.60;99.90;;;;;;6016146;23;20015;-77
2023/01/09 04:40:17;;;;;;;22.85;10.30;;;5.60;99.90;;;;;;6015958;23;20023;-78
2023/01/09 04:42:43;;;;;;;21.17;10.93;;;5.60;99.90;;;;;;5992767;23;20023;-79
2023/01/09 04:45:10;;;;;;;21.02;10.88;;;5.60;99.90;;;;;;6016119;23;20019;-78
2023/01/09 04:47:36;;;;;;;17.67;11.18;;;5.60;99.90;;;;;;6016209;23;20450;-77
2023/01/09 04:50:01;;;;;;;22.25;12.70;;;5.60;99.90;;;;;;6016082;23;20054;-78
2023/01/09 04:52:27;;;;;;;21.85;11.98;;;5.60;99.90;;;;;;6040855;23;20513;-77
2023/01/09 04:54:53;;;;;;;30.33;12.60;;;5.60;99.90;;;;;;6041041;23;20038;-77
2023/01/09 04:57:19;;;;;;;24.17;12.65;;;5.60;99.90;;;;;;6016209;23;20023;-77
2023/01/09 04:59:44;;;;;;;29.83;13.05;;;5.60;99.90;;;;;;6016940;23;20026;-77
2023/01/09 05:02:10;;;;;;;23.92;12.90;;;5.60;99.90;;;;;;6016146;23;20023;-78
2023/01/09 05:04:36;;;;;;;25.48;12.95;;;5.60;99.90;;;;;;6015639;23;20326;-78
2023/01/09 05:07:02;;;;;;;27.42;13.32;;;5.60;99.90;;;;;;6016166;23;20083;-77
2023/01/09 05:09:28;;;;;;;29.23;13.13;;;5.50;99.90;;;;;;6015904;23;20370;-79
2023/01/09 05:11:54;;;;;;;25.88;14.52;;;5.50;99.90;;;;;;6015727;23;20019;-77
2023/01/09 05:14:19;;;;;;;24.00;14.18;;;5.50;99.90;;;;;;6015790;23;20090;-77
2023/01/09 05:16:45;;;;;;;28.25;14.93;;;5.50;99.90;;;;;;6015406;23;20019;-77
2023/01/09 05:19:11;;;;;;;26.67;14.20;;;5.50;99.90;;;;;;6015931;23;20025;-79
2023/01/09 05:21:37;;;;;;;26.20;14.68;;;5.50;99.90;;;;;;6015550;23;20023;-77
2023/01/09 05:24:02;;;;;;;30.65;15.07;;;5.50;99.90;;;;;;6015721;23;20067;-78
2023/01/09 05:26:28;;;;;;;26.27;14.82;;;5.50;99.90;;;;;;6015555;23;20066;-78
2023/01/09 05:28:57;;;;;;;25.83;14.73;;;5.50;99.90;;;;;;6015645;23;20022;-83
2023/01/09 05:31:24;;;;;;;30.92;14.23;;;5.50;99.90;;;;;;6041146;23;20135;-77
2023/01/09 05:33:50;;;;;;;26.90;15.20;;;5.50;99.90;;;;;;6015688;23;20050;-79
2023/01/09 05:36:16;;;;;;;29.60;14.50;;;5.50;99.90;;;;;;6015245;23;20441;-77
2023/01/09 05:38:41;;;;;;;27.92;14.57;;;5.50;99.90;;;;;;6014910;23;20019;-77
2023/01/09 05:41:07;;;;;;;25.75;14.23;;;5.50;99.90;;;;;;6040240;23;20509;-77
2023/01/09 05:43:33;;;;;;;23.85;13.98;;;5.50;99.90;;;;;;6014845;23;20378;-76
2023/01/09 05:45:59;;;;;;;27.45;14.00;;;5.50;99.90;;;;;;6040396;23;20082;-78
2023/01/09 05:48:24;;;;;;;26.55;14.57;;;5.50;99.90;;;;;;6040055;23;20019;-77
2023/01/09 05:50:50;;;;;;;25.58;14.30;;;5.50;99.90;;;;;;5991340;23;20345;-77
2023/01/09 05:53:16;;;;;;;28.17;13.95;;;5.60;99.90;;;;;;6015440;23;20019;-77
2023/01/09 05:55:41;;;;;;;35.38;13.77;;;5.60;99.90;;;;;;6015456;23;20015;-78
2023/01/09 05:58:07;;;;;;;22.38;13.32;;;5.60;99.90;;;;;;6015420;23;20042;-78
2023/01/09 06:00:32;;;;;;;24.58;13.23;;;5.60;99.90;;;;;;6015280;23;20075;-77
2023/01/09 06:02:58;;;;;;;24.90;13.02;;;5.60;99.90;;;;;;6041414;23;20022;-75
2023/01/09 06:05:24;;;;;;;27.17;12.60;;;5.60;99.90;;;;;;6015220;23;20022;-77
2023/01/09 06:07:49;;;;;;;25.48;13.80;;;5.60;99.90;;;;;;6015324;23;20432;-78
2023/01/09 06:10:15;;;;;;;24.98;12.63;;;5.60;99.90;;;;;;6015475;23;20402;-77
2023/01/09 06:12:45;;;;;;;24.00;12.27;;;5.60;99.90;;;;;;6015436;23;20342;-77
2023/01/09 06:15:10;;;;;;;21.30;12.30;;;5.60;99.90;;;;;;6015225;23;20055;-78
2023/01/09 06:17:36;;;;;;;24.23;11.82;;;5.60;99.90;;;;;;6015137;23;20346;-79
2023/01/09 06:20:02;;;;;;;25.05;12.52;;;5.60;99.90;;;;;;6015409;23;20020;-78
2023/01/09 06:22:28;;;;;;;25.08;12.93;;;5.60;99.90;;;;;;6015085;23;20442;-77
2023/01/09 06:24:53;;;;;;;30.83;12.80;;;5.60;99.90;;;;;;6015188;23;20099;-76
2023/01/09 06:27:19;;;;;;;22.23;11.55;;;5.60;99.90;;;;;;6015271;23;20043;-76
2023/01/09 06:29:44;;;;;;;23.15;11.00;;;5.60;99.90;;;;;;6015126;23;20027;-77
2023/01/09 06:32:10;;;;;;;23.35;11.40;;;5.50;99.90;;;;;;5991799;23;20026;-78
2023/01/09 06:34:36;;;;;;;21.45;10.73;;;5.50;99.90;;;;;;6015968;23;20016;-78
2023/01/09 06:37:01;;;;;;;21.00;10.48;;;5.50;99.90;;;;;;5991594;23;20007;-78
2023/01/09 06:39:27;;;;;;;23.25;11.63;;;5.50;99.90;;;;;;6015004;23;20525;-77
2023/01/09 06:41:52;;;;;;;22.38;9.85;;;5.50;99.90;;;;;;6014913;23;20015;-78
2023/01/09 06:44:18;;;;;;;21.10;11.23;;;5.40;99.90;;;;;;6015036;23;20015;-77
2023/01/09 06:46:44;;;;;;;21.48;11.07;;;5.40;99.90;;;;;;6014952;23;20016;-77
2023/01/09 06:49:09;;;;;;;23.20;11.13;;;5.30;99.90;;;;;;6015025;23;20442;-79
2023/01/09 06:51:35;;;;;;;25.95;11.20;;;5.20;99.90;;;;;;6014982;23;20054;-78
2023/01/09 06:54:00;;;;;;;24.10;10.07;;;5.10;99.90;;;;;;6014996;23;20450;-77
2023/01/09 06:56:26;;;;;;;23.60;11.43;;;5.10;99.90;;;;;;6014911;23;20051;-76
2023/01/09 06:58:52;;;;;;;25.50;11.80;;;5.00;99.90;;;;;;6015206;23;20019;-79
2023/01/09 07:01:17;;;;;;;23.00;11.85;;;5.00;99.90;;;;;;6040039;23;20019;-78
2023/01/09 07:03:43;;;;;;;29.10;12.45;;;5.00;99.90;;;;;;6014929;23;20020;-76
2023/01/09 07:06:09;;;;;;;25.55;12.02;;;4.90;99.90;;;;;;6015149;23;20022;-79
2023/01/09 07:08:34;;;;;;;31.88;12.93;;;4.90;99.90;;;;;;6015741;23;20019;-75
2023/01/09 07:11:00;;;;;;;22.33;11.50;;;4.80;99.90;;;;;;6015171;23;20019;-81
2023/01/09 07:13:26;;;;;;;24.40;12.15;;;4.80;99.90;;;;;;6015464;23;20015;-78
2023/01/09 07:15:52;;;;;;;23.98;11.38;;;4.80;99.90;;;;;;6040353;23;20015;-80
2023/01/09 07:18:18;;;;;;;23.13;11.40;;;4.80;99.90;;;;;;6014972;23;20059;-78
2023/01/09 07:20:44;;;;;;;27.38;11.82;;;4.80;99.90;;;;;;6014652;23;20020;-79
2023/01/09 07:23:13;;;;;;;21.77;11.60;;;4.80;99.90;;;;;;6015156;23;20015;-78
2023/01/09 07:25:40;;;;;;;27.42;11.25;;;4.90;99.90;;;;;;6015128;23;20442;-79
2023/01/09 07:28:06;;;;;;;28.92;12.00;;;4.80;99.90;;;;;;6014722;23;20011;-80
2023/01/09 07:30:32;;;;;;;21.05;10.02;;;4.90;99.90;;;;;;6014788;23;20019;-77
2023/01/09 07:32:58;;;;;;;18.20;9.52;;;4.90;99.90;;;;;;5991461;23;20019;-81
2023/01/09 07:35:23;;;;;;;18.98;9.88;;;4.90;99.90;;;;;;6014814;23;20050;-75
2023/01/09 07:37:49;;;;;;;18.30;9.63;;;5.00;99.90;;;;;;6040472;23;20019;-75
2023/01/09 07:40:15;;;;;;;18.17;9.95;;;5.00;99.90;;;;;;6014632;23;20027;-73
2023/01/09 07:42:41;;;;;;;24.50;9.55;;;5.10;99.90;;;;;;6014873;23;20015;-79
2023/01/09 07:45:07;;;;;;;19.42;9.02;;;5.10;99.90;;;;;;6014665;23;20026;-77
2023/01/09 07:47:33;;;;;;;16.73;8.25;;;5.10;99.90;;;;;;6014497;23;20015;-78
2023/01/09 07:49:59;;;;;;;19.30;8.73;;;5.10;99.90;;;;;;6039924;23;20114;-79
2023/01/09 07:52:24;;;;;;;14.38;7.50;;;5.20;99.90;;;;;;5991747;23;20034;-78
2023/01/09 07:54:50;;;;;;;20.38;7.88;;;5.20;99.90;;;;;;5991753;23;20341;-78
2023/01/09 07:57:15;;;;;;;16.70;7.93;;;5.20;99.90;;;;;;6016475;23;20015;-77
2023/01/09 07:59:41;;;;;;;17.80;7.20;;;5.30;99.90;;;;;;6040974;23;20011;-78
2023/01/09 08:02:08;;;;;;;19.45;7.70;;;5.30;99.90;;;;;;6015201;23;20020;-77
2023/01/09 08:04:34;;;;;;;16.35;7.72;;;5.30;99.90;;;;;;6015696;23;20027;-79
2023/01/09 08:07:02;;;;;;;20.38;7.55;;;5.30;99.90;;;;;;6015512;23;20011;-79
2023/01/09 08:09:28;;;;;;;21.13;8.15;;;5.30;99.90;;;;;;6015646;23;20082;-79
2023/01/09 08:11:53;;;;;;;18.58;7.35;;;5.30;99.90;;;;;;6015426;23;20023;-81
2023/01/09 08:14:19;;;;;;;16.73;7.93;;;5.40;99.90;;;;;;6015734;23;20023;-77
2023/01/09 08:16:45;;;;;;;24.83;8.25;;;5.40;99.90;;;;;;6041100;23;20022;-80
2023/01/09 08:19:11;;;;;;;19.65;7.30;;;5.40;99.90;;;;;;6015520;23;20011;-79
2023/01/09 08:21:38;;;;;;;17.75;7.70;;;5.50;99.90;;;;;;6015228;23;20019;-81
2023/01/09 08:24:04;;;;;;;18.20;7.50;;;5.50;99.90;;;;;;6015534;23;20015;-80
2023/01/09 08:26:29;;;;;;;24.13;8.10;;;5.50;99.90;;;;;;6041150;23;20011;-77
2023/01/09 08:28:55;;;;;;;19.13;8.32;;;5.60;99.90;;;;;;6015356;23;20016;-79
2023/01/09 08:31:21;;;;;;;22.17;6.97;;;5.50;99.90;;;;;;6015212;23;20019;-79
2023/01/09 08:33:47;;;;;;;14.52;6.85;;;5.60;99.90;;;;;;6016079;23;20012;-79
2023/01/09 08:36:12;;;;;;;16.23;7.38;;;5.60;99.90;;;;;;6040974;23;20027;-77
2023/01/09 08:38:38;;;;;;;20.27;8.43;;;5.60;99.90;;;;;;6015536;23;20019;-77
2023/01/09 08:47:04;;;;;;;17.75;7.88;;;5.60;99.90;;;;;;6015354;23;20016;-76
2023/01/09 08:49:17;;;;;;;23.50;7.63;;;5.70;99.90;;;;;;6015030;23;20038;-78
2023/01/09 08:51:43;;;;;;;19.30;7.68;;;5.70;99.90;;;;;;6015182;23;20015;-77
2023/01/09 08:54:09;;;;;;;16.73;7.00;;;5.70;99.90;;;;;;6016295;23;20023;-78
2023/01/09 08:56:34;;;;;;;21.65;7.68;;;5.60;99.90;;;;;;6040469;23;20094;-78
2023/01/09 08:59:00;;;;;;;16.88;6.60;;;5.70;99.90;;;;;;6040742;23;20007;-77
2023/01/09 09:01:25;;;;;;;16.40;7.00;;;5.70;99.90;;;;;;6014738;23;20387;-79
2023/01/09 09:03:51;;;;;;;16.10;7.07;;;5.70;99.90;;;;;;6015701;23;20011;-78
2023/01/09 09:06:16;;;;;;;18.75;7.20;;;5.80;99.90;;;;;;6014740;23;20011;-79
2023/01/09 09:08:42;;;;;;;15.90;6.53;;;5.80;99.90;;;;;;6040176;23;20027;-78
2023/01/09 09:11:08;;;;;;;18.50;6.40;;;5.80;99.90;;;;;;6015528;23;20020;-78
2023/01/09 09:13:33;;;;;;;20.45;7.50;;;5.80;99.90;;;;;;6015188;23;20015;-78
2023/01/09 09:15:59;;;;;;;24.48;7.10;;;5.90;99.90;;;;;;6015346;23;20390;-78
2023/01/09 09:18:24;;;;;;;23.80;6.55;;;5.80;99.90;;;;;;6040606;23;20030;-79
2023/01/09 09:20:50;;;;;;;16.17;6.45;;;5.90;99.90;;;;;;6040476;23;20412;-78
2023/01/09 09:23:15;;;;;;;13.40;6.40;;;5.90;99.90;;;;;;6015110;23;20110;-78
2023/01/09 09:25:41;;;;;;;14.15;5.97;;;5.90;99.90;;;;;;6014917;23;20350;-78
2023/01/09 09:28:07;;;;;;;16.55;6.63;;;5.90;99.90;;;;;;6040645;23;20018;-79
2023/01/09 09:30:33;;;;;;;14.45;5.88;;;6.00;99.90;;;;;;6014804;23;20034;-78
2023/01/09 09:33:02;;;;;;;15.13;5.90;;;6.00;99.90;;;;;;6040652;23;20017;-78
2023/01/09 09:35:27;;;;;;;15.32;6.20;;;6.00;99.90;;;;;;6015350;23;20383;-78
2023/01/09 09:37:58;;;;;;;23.13;7.13;;;6.00;99.90;;;;;;6015803;23;20015;-78
2023/01/09 09:40:45;;;;;;;13.75;6.10;;;6.00;99.90;;;;;;5992020;23;20342;-78
2023/01/09 09:46:47;;;;;;;19.77;7.03;;;6.10;99.90;;;;;;6015984;23;20027;-77
2023/01/09 09:49:43;;;;;;;16.40;6.25;;;6.10;99.90;;;;;;6015820;23;20438;-79
2023/01/09 09:52:35;;;;;;;17.30;6.38;;;6.20;99.90;;;;;;6015009;23;20019;-78
2023/01/09 09:55:11;;;;;;;19.45;6.65;;;6.20;99.90;;;;;;6014782;23;20016;-79
2023/01/09 09:57:37;;;;;;;15.23;6.30;;;6.20;99.90;;;;;;6015666;23;20023;-77
2023/01/09 10:00:05;;;;;;;18.95;7.20;;;6.20;99.90;;;;;;6015350;23;20382;-76
2023/01/09 10:02:56;;;;;;;19.50;7.45;;;6.20;99.90;;;;;;5991878;23;20067;-76
2023/01/09 10:05:31;;;;;;;15.18;7.25;;;6.20;99.90;;;;;;6015469;23;20527;-79
2023/01/09 10:08:04;;;;;;;14.50;7.00;;;6.20;99.90;;;;;;6015534;23;20020;-78
2023/01/09 10:10:45;;;;;;;14.40;7.70;;;6.30;99.90;;;;;;6015591;23;20079;-79
2023/01/09 10:16:20;;;;;;;21.92;8.10;;;6.30;99.90;;;;;;6015190;23;20114;-78
2023/01/09 10:19:11;;;;;;;17.48;8.70;;;6.30;99.90;;;;;;6015975;23;20092;-78
2023/01/09 10:22:07;;;;;;;21.05;10.25;;;6.30;99.90;;;;;;5991522;23;20027;-81
2023/01/09 10:24:51;;;;;;;24.08;10.43;;;6.40;99.90;;;;;;6014765;23;20337;-76
2023/01/09 10:27:54;;;;;;;18.52;8.90;;;6.40;99.90;;;;;;6014575;23;20488;-76
2023/01/09 10:30:48;;;;;;;21.05;10.13;;;6.40;99.90;;;;;;6014372;23;20030;-76
2023/01/09 10:33:29;;;;;;;17.52;9.32;;;6.40;99.90;;;;;;6014378;23;20023;-76
2023/01/09 10:36:13;;;;;;;18.13;8.57;;;6.40;99.90;;;;;;6014400;23;20378;-79
2023/01/09 10:38:42;;;;;;;18.05;7.72;;;6.40;99.90;;;;;;5991175;23;20026;-74
2023/01/09 10:41:30;;;;;;;15.75;7.65;;;6.40;99.90;;;;;;6039486;23;20019;-75
2023/01/09 10:44:14;;;;;;;17.30;7.03;;;6.40;99.90;;;;;;6039541;23;20062;-77
2023/01/09 10:46:47;;;;;;;17.10;7.20;;;6.50;99.90;;;;;;6014188;23;20016;-76
2023/01/09 10:49:17;;;;;;;18.08;7.03;;;6.50;99.90;;;;;;6039469;23;20015;-77
2023/01/09 10:51:47;;;;;;;19.73;6.90;;;6.60;99.90;;;;;;6014156;23;20090;-74
2023/01/09 10:54:20;;;;;;;17.27;6.82;;;6.60;99.90;;;;;;6039762;23;20338;-75
2023/01/09 10:56:53;;;;;;;12.68;6.68;;;6.60;99.90;;;;;;6014178;23;20054;-75
2023/01/09 10:59:19;;;;;;;15.52;6.22;;;6.70;99.90;;;;;;5990689;23;20027;-75
2023/01/09 11:01:45;;;;;;;17.52;6.97;;;6.70;99.90;;;;;;6013780;23;20462;-75
2023/01/09 11:04:28;;;;;;;13.38;7.22;;;6.70;99.90;;;;;;6014078;23;20019;-74
2023/01/09 11:07:18;;;;;;;16.88;6.80;;;6.80;99.90;;;;;;5990706;23;20030;-73
2023/01/09 11:10:07;;;;;;;21.58;7.72;;;6.80;99.90;;;;;;6014089;23;20302;-74
2023/01/09 11:12:34;;;;;;;18.73;7.40;;;6.80;99.90;;;;;;6014050;23;20020;-74
2023/01/09 11:15:15;;;;;;;14.77;6.18;;;6.90;99.90;;;;;;6014380;23;20426;-76
2023/01/09 11:17:49;;;;;;;17.75;7.78;;;6.90;99.90;;;;;;5990880;23;20022;-75
2023/01/09 11:20:27;;;;;;;17.90;7.88;;;6.90;99.90;;;;;;5991349;23;20178;-75
2023/01/09 11:22:55;;;;;;;15.23;7.38;;;7.00;99.90;;;;;;6014189;23;20023;-76
2023/01/09 11:25:24;;;;;;;14.82;7.68;;;7.00;99.90;;;;;;6039566;23;20086;-76
2023/01/09 11:28:07;;;;;;;27.75;9.77;;;7.10;99.90;;;;;;6014106;23;20457;-74
2023/01/09 11:30:49;;;;;;;23.25;8.75;;;7.10;99.90;;;;;;6014824;23;20023;-76
2023/01/09 11:33:23;;;;;;;18.88;8.00;;;7.20;99.90;;;;;;6016094;23;20023;-74
2023/01/09 11:36:12;;;;;;;21.67;9.02;;;7.20;99.90;;;;;;6015927;23;20023;-76
2023/01/09 11:38:53;;;;;;;16.45;8.20;;;7.30;99.90;;;;;;6015854;23;20125;-75
2023/01/09 11:41:25;;;;;;;16.95;8.45;;;7.30;99.90;;;;;;6015588;23;20019;-75
2023/01/09 11:43:54;;;;;;;14.85;8.45;;;7.40;99.90;;;;;;6040865;23;20011;-75
2023/01/09 11:46:33;;;;;;;18.63;8.98;;;7.40;99.90;;;;;;6041522;23;20078;-75
2023/01/09 11:49:01;;;;;;;14.60;7.72;;;7.40;99.90;;;;;;6015540;23;20016;-75
2023/01/09 11:51:33;;;;;;;19.20;8.45;;;7.40;99.90;;;;;;5992272;23;20404;-76
2023/01/09 11:54:17;;;;;;;22.52;9.82;;;7.40;99.90;;;;;;5992289;23;20015;-74
2023/01/09 11:56:43;;;;;;;18.35;8.43;;;7.50;99.90;;;;;;6015728;23;20027;-75
2023/01/09 11:59:14;;;;;;;20.25;9.10;;;7.50;99.90;;;;;;6041296;23;20095;-76
2023/01/09 12:01:45;;;;;;;14.00;8.80;;;7.50;99.90;;;;;;6040507;23;20063;-75
2023/01/09 12:04:19;;;;;;;22.92;10.35;;;7.50;99.90;;;;;;6041359;23;20034;-76
2023/01/09 12:06:57;;;;;;;18.48;10.35;;;7.50;99.90;;;;;;6015622;23;20362;-77
2023/01/09 12:09:45;;;;;;;20.15;10.18;;;7.50;99.90;;;;;;6042668;23;20015;-73
2023/01/09 12:12:37;;;;;;;18.70;9.75;;;7.50;99.90;;;;;;6019620;23;20015;-73
2023/01/09 12:15:11;;;;;;;20.13;10.90;;;7.60;99.90;;;;;;6015837;23;20086;-75
2023/01/09 12:17:54;;;;;;;20.60;9.77;;;7.50;99.90;;;;;;6015858;23;20035;-77
2023/01/09 12:20:52;;;;;;;24.15;10.75;;;7.60;99.90;;;;;;5991972;23;20378;-74
2023/01/09 12:23:36;;;;;;;18.98;9.88;;;7.60;99.90;;;;;;6015835;23;20071;-75
2023/01/09 12:26:12;;;;;;;19.90;10.45;;;7.60;99.90;;;;;;6015826;23;20015;-75
2023/01/09 12:29:05;;;;;;;18.42;8.88;;;7.60;99.90;;;;;;6016461;23;20015;-76
2023/01/09 12:31:31;;;;;;;21.00;9.23;;;7.60;99.90;;;;;;6040852;23;20018;-76
2023/01/09 12:34:22;;;;;;;16.38;9.88;;;7.60;99.90;;;;;;6015436;23;20094;-76
2023/01/09 12:36:58;;;;;;;18.23;9.40;;;7.60;99.90;;;;;;6015491;23;20516;-75
2023/01/09 12:40:06;;;;;;;16.95;9.30;;;7.60;99.90;;;;;;6040513;23;20011;-76
2023/01/09 12:42:53;;;;;;;19.98;9.38;;;7.70;99.90;;;;;;5963381;23;20323;-76
2023/01/09 12:45:48;;;;;;;20.13;9.52;;;7.70;99.90;;;;;;6041232;23;20326;-74
2023/01/09 12:48:56;;;;;;;19.52;9.38;;;7.70;99.90;;;;;;5992649;23;20489;-76
2023/01/09 12:51:46;;;;;;;16.65;8.48;;;7.70;99.90;;;;;;6015077;23;20019;-75
2023/01/09 12:54:33;;;;;;;16.85;8.50;;;7.70;99.90;;;;;;5991744;23;20067;-76
2023/01/09 12:57:39;;;;;;;18.63;7.97;;;7.70;99.90;;;;;;6015164;23;20046;-76
2023/01/09 13:00:25;;;;;;;18.00;6.65;;;7.70;99.90;;;;;;5976791;23;20027;-76
2023/01/09 13:02:56;;;;;;;;;;;7.70;99.90;;;;;;6015929;23;20465;-76
2023/01/09 13:05:40;;;;;;;16.60;7.15;;;7.80;99.90;;;;;;6041687;23;19913;-76
2023/01/09 13:08:24;;;;;;;18.88;7.45;;;7.80;99.90;;;;;;6015587;23;20046;-75
2023/01/09 13:10:54;;;;;;;16.27;6.57;;;7.80;99.90;;;;;;6040373;23;20023;-75
2023/01/09 13:13:25;;;;;;;19.52;6.30;;;7.80;99.90;;;;;;6040884;23;20016;-76
2023/01/09 13:15:56;;;;;;;17.77;6.18;;;7.90;99.90;;;;;;6040713;23;20019;-77
2023/01/09 13:18:40;;;;;;;16.27;5.55;;;8.00;99.90;;;;;;6015097;23;20026;-75
2023/01/09 13:21:06;;;;;;;15.13;6.07;;;8.20;99.90;;;;;;6014780;23;20099;-75
2023/01/09 13:23:50;;;;;;;13.68;5.45;;;8.30;99.90;;;;;;6015147;23;20043;-75
2023/01/09 13:26:21;;;;;;;14.95;5.25;;;8.20;99.90;;;;;;6015016;23;20470;-77
2023/01/09 13:28:58;;;;;;;14.40;4.68;;;8.20;99.90;;;;;;6040296;23;20015;-74
2023/01/09 13:31:49;;;;;;;15.13;3.53;;;8.10;99.90;;;;;;6014988;23;20019;-75
2023/01/09 13:34:21;;;;;;;13.40;3.35;;;8.10;99.90;;;;;;6040071;23;20015;-76
2023/01/09 13:36:53;;;;;;;11.43;2.88;;;8.10;99.90;;;;;;5991561;23;20047;-76
2023/01/09 13:39:22;;;;;;;13.02;3.20;;;8.10;99.90;;;;;;6014892;23;20016;-75
2023/01/09 13:44:48;;;;;;;16.63;4.15;;;8.10;99.90;;;;;;6014589;23;20016;-75
2023/01/09 13:47:40;;;;;;;14.82;3.45;;;8.10;99.90;;;;;;6039902;23;20513;-75
2023/01/09 13:50:07;;;;;;;14.43;3.30;;;8.10;99.90;;;;;;6033262;23;20011;-76
2023/01/09 13:52:41;;;;;;;13.85;3.97;;;8.10;99.90;;;;;;6039661;23;20533;-75
2023/01/09 13:55:10;;;;;;;14.52;3.45;;;8.10;99.90;;;;;;6014703;23;20023;-76
2023/01/09 13:57:38;;;;;;;11.32;2.75;;;8.00;99.90;;;;;;6015953;23;20015;-75
2023/01/09 14:00:16;;;;;;;13.15;3.47;;;8.10;99.90;;;;;;6014495;23;20062;-75
2023/01/09 14:02:48;;;;;;;10.27;3.13;;;8.10;99.90;;;;;;6014361;23;20026;-75
2023/01/09 14:05:23;;;;;;;16.90;3.30;;;8.10;99.90;;;;;;6040572;23;20019;-75
2023/01/09 14:08:00;;;;;;;15.60;3.40;;;8.20;99.90;;;;;;6014539;23;20011;-75
2023/01/09 14:10:34;;;;;;;16.67;2.83;;;8.30;99.90;;;;;;6014548;23;20438;-76
2023/01/09 14:13:07;;;;;;;19.40;3.35;;;8.50;99.90;;;;;;6014596;23;20021;-78
2023/01/09 14:15:38;;;;;;;16.73;2.80;;;8.70;99.90;;;;;;6014538;23;20015;-75
2023/01/09 14:18:13;;;;;;;17.58;2.80;;;9.00;99.90;;;;;;6039928;23;20019;-76
2023/01/09 14:20:43;;;;;;;14.23;3.22;;;9.30;99.90;;;;;;6014140;23;20462;-76
2023/01/09 14:23:25;;;;;;;17.25;3.35;;;9.30;99.90;;;;;;6040178;23;20012;-76
2023/01/09 14:25:52;;;;;;;21.50;3.58;;;9.10;99.90;;;;;;6014376;23;20019;-76
2023/01/09 14:28:26;;;;;;;16.13;3.53;;;8.90;99.90;;;;;;6014315;23;20018;-76
2023/01/09 14:30:52;;;;;;;14.90;4.10;;;8.80;99.90;;;;;;5990594;23;20441;-74
2023/01/09 14:33:17;;;;;;;12.73;2.83;;;8.60;99.90;;;;;;6014958;23;20046;-75
2023/01/09 14:35:46;;;;;;;17.38;2.55;;;8.50;99.90;;;;;;6038978;23;20342;-75
2023/01/09 14:38:21;;;;;;;18.65;2.67;;;8.40;99.90;;;;;;6012032;23;20023;-74
2023/01/09 14:40:52;;;;;;;13.95;3.00;;;8.30;99.90;;;;;;6014153;23;20015;-75
2023/01/09 14:43:51;;;;;;;16.88;3.00;;;8.30;99.90;;;;;;5990704;23;20342;-75
2023/01/09 14:46:18;;;;;;;10.77;2.55;;;8.20;99.90;;;;;;6032508;23;20430;-75
2023/01/09 14:49:29;;;;;;;12.40;2.53;;;8.10;99.90;;;;;;6039845;23;20011;-74
2023/01/09 14:51:57;;;;;;;11.07;3.00;;;8.00;99.90;;;;;;5985357;23;20015;-75
2023/01/09 14:54:25;;;;;;;15.63;2.63;;;8.00;99.90;;;;;;5990405;23;20015;-75
2023/01/09 14:56:51;;;;;;;13.50;3.35;;;7.90;99.90;;;;;;6013842;23;20019;-74
2023/01/09 14:59:16;;;;;;;13.48;3.38;;;7.90;99.90;;;;;;6013763;23;20047;-76
2023/01/09 15:01:46;;;;;;;14.23;3.10;;;7.80;99.90;;;;;;6013565;23;20035;-75
2023/01/09 15:04:26;;;;;;;14.88;3.63;;;7.80;99.90;;;;;;6013990;23;20466;-75
2023/01/09 15:06:52;;;;;;;14.85;3.55;;;7.80;99.90;;;;;;6013892;23;20011;-75
2023/01/09 15:09:42;;;;;;;19.30;4.00;;;7.80;99.90;;;;;;6039110;23;20012;-74
2023/01/09 15:12:16;;;;;;;15.65;4.22;;;7.80;99.90;;;;;;6039410;23;20071;-75
2023/01/09 15:14:44;;;;;;;12.70;3.25;;;7.80;99.90;;;;;;6039524;23;20015;-75
2023/01/09 15:17:38;;;;;;;16.10;4.28;;;7.70;99.90;;;;;;6013579;23;20394;-76
2023/01/09 15:20:05;;;;;;;16.00;3.40;;;7.80;99.90;;;;;;6032108;23;20027;-75
2023/01/09 15:22:36;;;;;;;20.88;3.85;;;7.70;99.90;;;;;;6013791;23;20059;-75
2023/01/09 15:25:32;;;;;;;16.73;5.18;;;7.70;99.90;;;;;;6013987;23;20075;-75
2023/01/09 15:27:59;;;;;;;15.90;4.55;;;7.80;99.90;;;;;;6013954;23;20464;-75
2023/01/09 15:30:34;;;;;;;15.35;4.32;;;7.70;99.90;;;;;;6013671;23;20025;-75
2023/01/09 15:33:09;;;;;;;16.10;3.83;;;7.70;99.90;;;;;;6014462;23;20024;-75
2023/01/09 15:35:40;;;;;;;18.40;5.15;;;7.60;99.90;;;;;;6013849;23;20023;-75
2023/01/09 15:38:10;;;;;;;16.42;4.10;;;7.60;99.90;;;;;;6013841;23;20024;-74
2023/01/09 15:40:36;;;;;;;18.75;4.95;;;7.50;99.90;;;;;;6039147;23;20015;-75
2023/01/09 15:43:03;;;;;;;18.33;3.95;;;7.50;99.90;;;;;;6013876;23;20019;-76
2023/01/09 15:45:40;;;;;;;17.30;3.60;;;7.50;99.90;;;;;;6014201;23;20015;-74
2023/01/09 15:48:31;;;;;;;12.63;3.83;;;7.50;99.90;;;;;;6013790;23;20445;-75
2023/01/09 15:51:05;;;;;;;17.90;4.82;;;7.50;99.90;;;;;;6038842;23;20023;-75
2023/01/09 15:53:31;;;;;;;19.55;4.20;;;7.40;99.90;;;;;;6013621;23;20111;-75
2023/01/09 15:56:18;;;;;;;17.08;4.38;;;7.40;99.90;;;;;;6013653;23;20015;-75
2023/01/09 15:58:52;;;;;;;26.13;4.47;;;7.40;99.90;;;;;;6013652;23;20023;-74
2023/01/09 16:01:32;;;;;;;23.05;3.88;;;7.40;99.90;;;;;;6013385;23;20054;-75
2023/01/09 16:04:12;;;;;;;16.63;3.63;;;7.30;99.90;;;;;;6039244;23;20016;-76
2023/01/09 16:06:47;;;;;;;27.30;4.70;;;7.30;99.90;;;;;;6014105;23;20086;-75
2023/01/09 16:09:16;;;;;;;22.55;4.30;;;7.30;99.90;;;;;;6013911;23;20022;-75
2023/01/09 16:11:47;;;;;;;19.50;3.42;;;7.20;99.90;;;;;;6013545;23;20019;-75
2023/01/09 16:14:29;;;;;;;24.98;4.53;;;7.20;99.90;;;;;;6013780;23;20030;-75
2023/01/09 16:17:03;;;;;;;25.67;5.03;;;7.20;99.90;;;;;;6014632;23;20497;-76
2023/01/09 16:19:50;;;;;;;15.15;3.72;;;7.20;99.90;;;;;;6040533;23;20019;-75
2023/01/09 16:22:30;;;;;;;16.33;3.15;;;7.20;99.90;;;;;;5991654;23;20106;-76
2023/01/09 16:24:58;;;;;;;29.80;5.30;;;7.10;99.90;;;;;;6015253;23;20102;-75
2023/01/09 16:27:26;;;;;;;24.08;5.90;;;7.10;99.90;;;;;;6015317;23;20073;-75
2023/01/09 16:29:55;;;;;;;24.48;4.22;;;7.10;99.90;;;;;;6040483;23;20019;-74
2023/01/09 16:32:33;;;;;;;21.35;6.05;;;7.10;99.90;;;;;;6040327;23;20019;-75
2023/01/09 16:35:01;;;;;;;23.38;5.25;;;7.00;99.90;;;;;;6015262;23;20079;-75
2023/01/09 16:37:27;;;;;;;26.08;5.85;;;7.00;99.90;;;;;;6015409;23;20019;-75
2023/01/09 16:40:21;;;;;;;22.38;5.00;;;7.00;99.90;;;;;;6015739;23;20015;-75
2023/01/09 16:43:07;;;;;;;28.08;5.63;;;6.90;99.90;;;;;;6041155;23;20481;-75
2023/01/09 16:45:39;;;;;;;29.70;6.95;;;6.90;99.90;;;;;;6040470;23;20015;-74
2023/01/09 16:48:23;;;;;;;20.13;5.30;;;6.80;99.90;;;;;;6015323;23;20019;-76
2023/01/09 16:50:49;;;;;;;29.70;5.75;;;6.80;99.90;;;;;;6015195;23;20143;-74
2023/01/09 16:53:16;;;;;;;34.65;7.82;;;6.80;99.90;;;;;;6015323;23;20059;-75
2023/01/09 16:55:42;;;;;;;33.30;10.10;;;6.70;99.90;;;;;;6040502;23;20007;-75
2023/01/09 16:58:17;;;;;;;17.45;6.28;;;6.70;99.90;;;;;;6040462;23;20015;-75
2023/01/09 17:00:43;;;;;;;28.00;5.78;;;6.60;99.90;;;;;;6014814;23;20506;-76
2023/01/09 17:03:13;;;;;;;28.02;6.38;;;6.60;99.90;;;;;;5992493;23;20058;-76
2023/01/09 17:05:39;;;;;;;14.40;4.53;;;6.60;99.90;;;;;;6040626;23;20022;-76
2023/01/09 17:08:35;;;;;;;18.80;4.10;;;6.60;99.90;;;;;;6015179;23;20020;-76
2023/01/09 17:11:01;;;;;;;24.98;4.32;;;6.50;99.90;;;;;;5992343;23;20023;-76
2023/01/09 17:13:26;;;;;;;17.95;3.38;;;6.50;99.90;;;;;;6015158;23;20030;-77
2023/01/09 17:15:57;;;;;;;20.08;3.58;;;6.40;99.90;;;;;;6015082;23;20402;-76
2023/01/09 17:18:25;;;;;;;19.08;4.32;;;6.40;99.90;;;;;;6040311;23;20438;-77
2023/01/09 17:20:53;;;;;;;19.40;3.78;;;6.40;99.90;;;;;;6014895;23;20019;-75
2023/01/09 17:23:24;;;;;;;19.63;4.05;;;6.40;99.90;;;;;;6014930;23;20102;-76
2023/01/09 17:28:43;;;;;;;22.55;4.15;;;6.30;99.90;;;;;;6014057;23;20067;-76